createdAt,value
2023-05-19T00:01:30.294Z,102391.53
2023-05-19T00:04:02.385Z,102384.38
2023-05-19T00:06:32.072Z,102387.88
2023-05-19T00:09:08.280Z,102381.63
2023-05-19T00:11:38.136Z,102385.97
2023-05-19T00:14:08.491Z,102385.84
2023-05-19T00:16:36.385Z,102388.41
2023-05-19T00:19:05.427Z,102379.59
2023-05-19T00:21:32.961Z,102378.63
2023-05-19T00:24:00.130Z,102380.34
2023-05-19T00:26:27.756Z,102378.50
2023-05-19T00:28:55.056Z,102378.44
2023-05-19T00:31:22.308Z,102371.34
2023-05-19T00:33:49.421Z,102373.88
2023-05-19T00:36:16.487Z,102362.44
2023-05-19T00:38:43.588Z,102360.63
2023-05-19T00:41:11.058Z,102357.91
2023-05-19T00:43:38.134Z,102351.69
2023-05-19T00:46:05.430Z,102346.31
2023-05-19T00:48:32.576Z,102346.25
2023-05-19T00:51:04.821Z,102349.75
2023-05-19T00:53:34.324Z,102342.59
2023-05-19T00:56:03.098Z,102341.66
2023-05-19T00:58:32.698Z,102343.41
2023-05-19T01:01:04.562Z,102346.88
2023-05-19T01:03:37.292Z,102338.00
2023-05-19T01:06:05.389Z,102343.25
2023-05-19T01:08:37.697Z,102345.84
2023-05-19T01:11:08.550Z,102347.56
2023-05-19T01:13:36.932Z,102347.50
2023-05-19T01:16:30.771Z,102351.84
2023-05-19T01:19:21.973Z,102351.78
2023-05-19T01:22:33.415Z,102350.88
2023-05-19T01:25:47.137Z,102352.53
2023-05-19T01:29:07.617Z,102352.38
2023-05-19T01:31:38.776Z,102350.50
2023-05-19T01:34:07.757Z,102353.94
2023-05-19T01:36:36.135Z,102360.03
2023-05-19T01:39:04.318Z,102358.19
2023-05-19T01:41:33.751Z,102353.72
2023-05-19T01:44:01.251Z,102358.03
2023-05-19T01:46:28.378Z,102359.72
2023-05-19T01:48:56.049Z,102352.59
2023-05-19T01:51:23.213Z,102356.91
2023-05-19T01:53:50.377Z,102355.88
2023-05-19T01:56:38.296Z,102339.97
2023-05-19T01:59:31.681Z,102343.34
2023-05-19T02:02:02.237Z,102341.50
2023-05-19T02:04:45.005Z,102339.69
2023-05-19T02:07:53.718Z,102334.25
2023-05-19T02:10:33.798Z,102331.50
2023-05-19T02:13:04.629Z,102341.94
2023-05-19T02:15:40.297Z,102339.25
2023-05-19T02:18:11.728Z,102336.56
2023-05-19T02:20:40.115Z,102335.53
2023-05-19T02:23:07.400Z,102331.94
2023-05-19T02:25:34.782Z,102330.09
2023-05-19T02:28:01.903Z,102325.66
2023-05-19T02:30:29.075Z,102330.00
2023-05-19T02:32:56.245Z,102331.69
2023-05-19T02:35:23.408Z,102321.06
2023-05-19T02:37:50.541Z,102327.16
2023-05-19T02:40:18.378Z,102324.38
2023-05-19T02:42:45.557Z,102321.72
2023-05-19T02:45:12.692Z,102319.06
2023-05-19T02:47:41.478Z,102316.41
2023-05-19T02:50:09.267Z,102324.28
2023-05-19T02:52:36.383Z,102318.03
2023-05-19T02:55:03.557Z,102319.75
2023-05-19T02:57:31.855Z,102318.78
2023-05-19T02:59:59.090Z,102322.31
2023-05-19T03:02:26.134Z,102327.44
2023-05-19T03:04:53.265Z,102320.41
2023-05-19T03:07:25.049Z,102315.94
2023-05-19T03:09:52.580Z,102311.44
2023-05-19T03:12:19.581Z,102317.53
2023-05-19T03:14:47.675Z,102312.25
2023-05-19T03:17:14.865Z,102316.56
2023-05-19T03:19:42.167Z,102320.03
2023-05-19T03:22:09.280Z,102315.53
2023-05-19T03:24:36.401Z,102321.63
2023-05-19T03:27:05.950Z,102322.47
2023-05-19T03:29:33.101Z,102324.16
2023-05-19T03:32:00.330Z,102323.22
2023-05-19T03:34:27.519Z,102325.81
2023-05-19T03:36:54.569Z,102328.38
2023-05-19T03:39:21.637Z,102329.25
2023-05-19T03:41:48.768Z,102324.72
2023-05-19T03:44:15.881Z,102328.28
2023-05-19T03:46:42.973Z,102329.97
2023-05-19T03:49:11.436Z,102335.34
2023-05-19T03:51:38.728Z,102335.31
2023-05-19T03:54:06.097Z,102337.03
2023-05-19T03:56:33.263Z,102345.81
2023-05-19T03:59:00.311Z,102341.44
2023-05-19T04:01:27.354Z,102338.00
2023-05-19T04:03:54.667Z,102340.72
2023-05-19T04:06:22.094Z,102338.16
2023-05-19T04:08:49.178Z,102332.97
2023-05-19T04:11:16.324Z,102333.06
2023-05-19T04:13:44.548Z,102335.81
2023-05-19T04:16:12.320Z,102334.16
2023-05-19T04:18:39.586Z,102332.53
2023-05-19T04:21:08.636Z,102338.78
2023-05-19T04:23:35.708Z,102342.44
2023-05-19T04:26:03.754Z,102333.91
2023-05-19T04:28:30.997Z,102340.31
2023-05-19T04:30:58.860Z,102339.59
2023-05-19T04:33:26.026Z,102337.03
2023-05-19T04:35:53.048Z,102338.88
2023-05-19T04:38:22.214Z,102339.25
2023-05-19T04:40:50.394Z,102340.50
2023-05-19T04:43:19.260Z,102336.41
2023-05-19T04:45:47.339Z,102343.78
2023-05-19T04:48:15.166Z,102346.66
2023-05-19T04:50:42.360Z,102341.69
2023-05-19T04:53:10.103Z,102336.53
2023-05-19T04:55:38.744Z,102340.28
2023-05-19T04:58:06.777Z,102336.00
2023-05-19T05:00:35.747Z,102337.00
2023-05-19T05:03:07.242Z,102343.28
2023-05-19T05:05:35.324Z,102335.50
2023-05-19T05:08:03.196Z,102340.97
2023-05-19T05:10:30.478Z,102335.88
2023-05-19T05:12:58.303Z,102337.84
2023-05-19T05:15:28.688Z,102338.88
2023-05-19T05:17:56.716Z,102346.97
2023-05-19T05:20:24.516Z,102348.03
2023-05-19T05:22:52.142Z,102348.19
2023-05-19T05:25:20.275Z,102352.78
2023-05-19T05:27:47.313Z,102352.03
2023-05-19T05:30:14.584Z,102354.81
2023-05-19T05:32:41.894Z,102352.19
2023-05-19T05:35:09.687Z,102359.25
2023-05-19T05:37:36.710Z,102359.28
2023-05-19T05:40:04.824Z,102354.03
2023-05-19T05:42:31.923Z,102355.03
2023-05-19T05:44:58.979Z,102357.00
2023-05-19T05:47:26.550Z,102356.38
2023-05-19T05:49:53.992Z,102359.34
2023-05-19T05:52:22.972Z,102349.16
2023-05-19T05:54:50.893Z,102355.59
2023-05-19T05:57:18.356Z,102353.16
2023-05-19T05:59:47.154Z,102355.06
2023-05-19T06:02:14.618Z,102356.06
2023-05-19T06:04:41.917Z,102359.72
2023-05-19T06:07:08.991Z,102353.63
2023-05-19T06:09:36.647Z,102359.03
2023-05-19T06:12:04.262Z,102364.41
2023-05-19T06:14:31.282Z,102362.72
2023-05-19T06:16:58.363Z,102368.16
2023-05-19T06:19:25.788Z,102374.50
2023-05-19T06:21:53.005Z,102371.97
2023-05-19T06:24:20.187Z,102380.97
2023-05-19T06:26:47.501Z,102368.72
2023-05-19T06:29:14.757Z,102370.50
2023-05-19T06:31:41.953Z,102375.00
2023-05-19T06:34:12.296Z,102374.19
2023-05-19T06:36:41.451Z,102372.50
2023-05-19T06:39:08.559Z,102372.59
2023-05-19T06:41:35.723Z,102372.66
2023-05-19T06:44:04.216Z,102371.81
2023-05-19T06:46:31.386Z,102375.41
2023-05-19T06:48:58.588Z,102373.66
2023-05-19T06:51:25.871Z,102373.66
2023-05-19T06:53:53.102Z,102372.75
2023-05-19T06:56:20.243Z,102375.41
2023-05-19T06:58:47.284Z,102377.13
2023-05-19T07:01:14.421Z,102378.00
2023-05-19T07:03:41.869Z,102373.59
2023-05-19T07:06:09.275Z,102370.13
2023-05-19T07:08:37.306Z,102373.75
2023-05-19T07:11:04.948Z,102370.22
2023-05-19T07:13:33.028Z,102367.63
2023-05-19T07:16:00.274Z,102371.19
2023-05-19T07:18:27.430Z,102379.19
2023-05-19T07:20:54.550Z,102372.13
2023-05-19T07:23:21.691Z,102373.88
2023-05-19T07:25:48.791Z,102381.88
2023-05-19T07:28:15.988Z,102376.53
2023-05-19T07:30:43.243Z,102381.00
2023-05-19T07:33:10.358Z,102372.19
2023-05-19T07:35:37.664Z,102372.22
2023-05-19T07:38:04.824Z,102379.31
2023-05-19T07:40:32.202Z,102381.09
2023-05-19T07:42:59.519Z,102378.41
2023-05-19T07:45:26.599Z,102384.63
2023-05-19T07:47:54.473Z,102378.41
2023-05-19T07:50:21.662Z,102379.31
2023-05-19T07:52:48.705Z,102377.56
2023-05-19T07:55:16.197Z,102376.69
2023-05-19T07:57:43.270Z,102372.31
2023-05-19T08:00:12.561Z,102372.34
2023-05-19T08:02:39.839Z,102363.47
2023-05-19T08:05:09.248Z,102365.25
2023-05-19T08:07:36.650Z,102358.13
2023-05-19T08:10:05.261Z,102361.63
2023-05-19T08:12:32.553Z,102365.22
2023-05-19T08:15:01.312Z,102363.38
2023-05-19T08:17:28.944Z,102358.91
2023-05-19T08:19:56.063Z,102356.22
2023-05-19T08:22:23.411Z,102366.75
2023-05-19T08:24:51.880Z,102351.56
2023-05-19T08:27:18.973Z,102352.34
2023-05-19T08:29:46.058Z,102342.44
2023-05-19T08:32:13.446Z,102344.94
2023-05-19T08:34:41.460Z,102341.28
2023-05-19T08:37:08.796Z,102340.28
2023-05-19T08:39:35.954Z,102337.63
2023-05-19T08:42:03.205Z,102336.75
2023-05-19T08:44:31.297Z,102333.09
2023-05-19T08:47:03.855Z,102327.69
2023-05-19T08:49:43.371Z,102327.72
2023-05-19T08:52:35.912Z,102325.00
2023-05-19T08:55:15.572Z,102324.91
2023-05-19T08:57:43.204Z,102316.88
2023-05-19T09:00:12.322Z,102321.31
2023-05-19T09:02:50.402Z,102325.66
2023-05-19T09:05:27.482Z,102313.06
2023-05-19T09:07:55.136Z,102309.75
2023-05-19T09:10:22.434Z,102313.13
2023-05-19T09:12:49.904Z,102313.69
2023-05-19T09:15:20.284Z,102318.72
2023-05-19T09:17:50.571Z,102309.78
2023-05-19T09:20:18.195Z,102298.13
2023-05-19T09:22:47.486Z,102303.94
2023-05-19T09:25:24.123Z,102293.72
2023-05-19T09:27:51.529Z,102285.34
2023-05-19T09:30:19.560Z,102286.75
2023-05-19T09:32:48.088Z,102288.19
2023-05-19T09:35:20.254Z,102288.53
2023-05-19T09:37:47.426Z,102281.81
2023-05-19T09:40:16.366Z,102288.75
2023-05-19T09:42:44.358Z,102286.16
2023-05-19T09:45:12.080Z,102294.47
2023-05-19T09:47:42.140Z,102293.88
2023-05-19T09:50:12.454Z,102294.94
2023-05-19T09:52:42.898Z,102292.34
2023-05-19T09:55:12.849Z,102292.63
2023-05-19T09:57:40.828Z,102290.00
2023-05-19T10:00:17.866Z,102297.19
2023-05-19T10:02:51.035Z,102294.44
2023-05-19T10:05:20.910Z,102285.66
2023-05-19T10:07:52.395Z,102281.19
2023-05-19T10:10:20.916Z,102283.72
2023-05-19T10:12:49.839Z,102287.06
2023-05-19T10:15:21.406Z,102292.38
2023-05-19T10:17:51.325Z,102287.13
2023-05-19T10:20:19.054Z,102291.53
2023-05-19T10:22:46.800Z,102292.34
2023-05-19T10:25:15.323Z,102286.91
2023-05-19T10:28:10.976Z,102280.72
2023-05-19T10:30:43.574Z,102268.31
2023-05-19T10:33:16.191Z,102266.56
2023-05-19T10:36:27.183Z,102280.91
2023-05-19T10:39:06.312Z,102269.38
2023-05-19T10:41:59.453Z,102270.22
2023-05-19T10:45:02.806Z,102276.25
2023-05-19T10:47:30.593Z,102262.91
2023-05-19T10:50:01.363Z,102259.31
2023-05-19T10:52:30.998Z,102265.59
2023-05-19T10:54:58.402Z,102259.19
2023-05-19T10:57:32.186Z,102259.88
2023-05-19T11:00:11.098Z,102263.22
2023-05-19T11:02:50.896Z,102260.72
2023-05-19T11:05:20.975Z,102266.28
2023-05-19T11:08:11.595Z,102262.56
2023-05-19T11:10:47.096Z,102263.28
2023-05-19T11:13:22.731Z,102268.22
2023-05-19T11:15:50.203Z,102253.06
2023-05-19T11:18:17.399Z,102247.53
2023-05-19T11:20:59.984Z,102248.31
2023-05-19T11:23:27.337Z,102256.97
2023-05-19T11:25:54.528Z,102253.25
2023-05-19T11:28:28.169Z,102241.47
2023-05-19T11:31:01.211Z,102245.53
2023-05-19T11:33:28.604Z,102242.56
2023-05-19T11:36:00.338Z,102247.53
2023-05-19T11:38:30.180Z,102247.34
2023-05-19T11:40:57.635Z,102249.78
2023-05-19T11:43:26.179Z,102238.31
2023-05-19T11:45:55.239Z,102234.06
2023-05-19T11:48:27.526Z,102241.31
2023-05-19T11:50:57.144Z,102230.34
2023-05-19T11:53:24.592Z,102232.84
2023-05-19T11:55:52.017Z,102230.00
2023-05-19T11:58:26.983Z,102221.88
2023-05-19T12:00:54.637Z,102219.97
2023-05-19T12:03:28.107Z,102226.94
2023-05-19T12:05:58.543Z,102227.56
2023-05-19T12:08:27.238Z,102224.56
2023-05-19T12:10:54.385Z,102210.00
2023-05-19T12:13:23.055Z,102208.78
2023-05-19T12:15:52.593Z,102203.47
2023-05-19T12:18:20.388Z,102210.41
2023-05-19T12:20:47.767Z,102209.16
2023-05-19T12:23:15.083Z,102214.94
2023-05-19T12:25:42.457Z,102207.47
2023-05-19T12:28:10.093Z,102207.41
2023-05-19T12:30:37.754Z,102204.19
2023-05-19T12:33:05.559Z,102207.88
2023-05-19T12:35:34.042Z,102196.66
2023-05-19T12:38:06.717Z,102190.16
2023-05-19T12:40:36.291Z,102187.41
2023-05-19T12:43:04.530Z,102198.78
2023-05-19T12:45:37.117Z,102201.47
2023-05-19T12:48:16.698Z,102188.09
2023-05-19T12:50:45.286Z,102191.97
2023-05-19T12:53:13.656Z,102181.78
2023-05-19T12:55:45.440Z,102180.91
2023-05-19T12:58:13.381Z,102184.22
2023-05-19T13:00:44.887Z,102186.81
2023-05-19T13:03:20.647Z,102177.56
2023-05-19T13:05:51.206Z,102167.75
2023-05-19T13:08:24.163Z,102168.53
2023-05-19T13:10:54.687Z,102174.66
2023-05-19T13:13:22.031Z,102169.28
2023-05-19T13:15:49.409Z,102164.59
2023-05-19T13:18:17.494Z,102168.78
2023-05-19T13:20:46.467Z,102164.19
2023-05-19T13:23:14.814Z,102152.31
2023-05-19T13:25:42.630Z,102158.50
2023-05-19T13:28:10.334Z,102151.41
2023-05-19T13:30:40.838Z,102148.69
2023-05-19T13:33:08.133Z,102148.56
2023-05-19T13:35:38.425Z,102141.34
2023-05-19T13:38:10.757Z,102149.97
2023-05-19T13:40:39.637Z,102144.91
2023-05-19T13:43:07.906Z,102166.34
2023-05-19T13:45:35.097Z,102144.81
2023-05-19T13:48:02.504Z,102141.91
2023-05-19T13:50:29.722Z,102153.72
2023-05-19T13:52:56.804Z,102147.81
2023-05-19T13:55:24.240Z,102146.19
2023-05-19T13:57:51.310Z,102138.63
2023-05-19T14:00:19.593Z,102129.28
2023-05-19T14:02:47.061Z,102138.81
2023-05-19T14:05:14.455Z,102140.16
2023-05-19T14:07:42.556Z,102134.06
2023-05-19T14:10:10.239Z,102144.69
2023-05-19T14:12:55.001Z,102134.94
2023-05-19T14:15:24.516Z,102132.56
2023-05-19T14:17:53.068Z,102123.28
2023-05-19T14:20:20.513Z,102128.00
2023-05-19T14:22:47.627Z,102121.59
2023-05-19T14:25:14.908Z,102126.00
2023-05-19T14:27:42.018Z,102135.59
2023-05-19T14:30:09.777Z,102131.09
2023-05-19T14:32:36.943Z,102131.09
2023-05-19T14:35:04.732Z,102124.97
2023-05-19T14:37:32.376Z,102128.59
2023-05-19T14:39:59.921Z,102116.09
2023-05-19T14:42:27.092Z,102123.13
2023-05-19T14:44:54.312Z,102122.66
2023-05-19T14:47:21.450Z,102124.59
2023-05-19T14:49:48.759Z,102117.72
2023-05-19T14:52:15.882Z,102103.72
2023-05-19T14:54:42.986Z,102113.63
2023-05-19T14:57:12.918Z,102115.66
2023-05-19T14:59:40.257Z,102109.81
2023-05-19T15:02:07.848Z,102119.94
2023-05-19T15:04:34.954Z,102115.28
2023-05-19T15:09:31.967Z,102109.66
2023-05-19T15:12:01.220Z,102105.13
2023-05-19T15:14:30.594Z,102105.75
2023-05-19T15:16:58.657Z,102104.44
2023-05-19T15:19:26.181Z,102108.03
2023-05-19T15:21:53.702Z,102098.19
2023-05-19T15:24:20.850Z,102094.16
2023-05-19T15:26:48.225Z,102099.00
2023-05-19T15:29:15.341Z,102101.88
2023-05-19T15:31:42.455Z,102098.41
2023-05-19T15:34:09.690Z,102114.81
2023-05-19T15:36:36.839Z,102108.78
2023-05-19T15:39:04.010Z,102100.22
2023-05-19T15:41:31.176Z,102096.13
2023-05-19T15:44:00.338Z,102093.53
2023-05-19T15:46:28.101Z,102075.19
2023-05-19T15:48:55.591Z,102095.94
2023-05-19T15:51:22.954Z,102092.72
2023-05-19T15:53:50.141Z,102104.66
2023-05-19T15:56:17.606Z,102090.38
2023-05-19T15:58:45.084Z,102093.22
2023-05-19T16:01:12.372Z,102083.75
2023-05-19T16:03:39.605Z,102086.94
2023-05-19T16:06:06.897Z,102082.47
2023-05-19T16:08:34.067Z,102075.22
2023-05-19T16:11:01.127Z,102086.19
2023-05-19T16:13:29.741Z,102083.50
2023-05-19T16:15:57.277Z,102081.25
2023-05-19T16:18:24.324Z,102080.03
2023-05-19T16:20:52.010Z,102077.31
2023-05-19T16:23:19.153Z,102077.66
2023-05-19T16:25:47.070Z,102088.66
2023-05-19T16:28:14.715Z,102077.94
2023-05-19T16:30:42.589Z,102077.81
2023-05-19T16:33:09.712Z,102076.00
2023-05-19T16:35:37.096Z,102071.16
2023-05-19T16:38:04.199Z,102063.97
2023-05-19T16:40:31.333Z,102066.91
2023-05-19T16:42:58.472Z,102064.59
2023-05-19T16:45:26.605Z,102052.84
2023-05-19T16:47:53.779Z,102054.56
2023-05-19T16:50:20.843Z,102063.81
2023-05-19T16:52:47.878Z,102071.41
2023-05-19T16:55:19.730Z,102064.25
2023-05-19T16:57:47.427Z,102064.03
2023-05-19T17:00:15.618Z,102057.38
2023-05-19T17:02:42.864Z,102052.59
2023-05-19T17:05:10.123Z,102061.53
2023-05-19T17:07:37.185Z,102058.56
2023-05-19T17:10:04.960Z,102063.81
2023-05-19T17:12:32.267Z,102054.31
2023-05-19T17:14:59.337Z,102057.69
2023-05-19T17:17:26.506Z,102070.09
2023-05-19T17:19:53.700Z,102055.66
2023-05-19T17:22:20.869Z,102066.31
2023-05-19T17:24:48.090Z,102064.41
2023-05-19T17:27:15.261Z,102060.34
2023-05-19T17:29:42.449Z,102061.03
2023-05-19T17:32:09.653Z,102051.78
2023-05-19T17:34:36.823Z,102050.16
2023-05-19T17:37:04.244Z,102049.41
2023-05-19T17:39:31.413Z,102055.47
2023-05-19T17:41:58.592Z,102065.91
2023-05-19T17:44:25.812Z,102061.88
2023-05-19T17:46:53.223Z,102052.84
2023-05-19T17:49:22.959Z,102057.41
2023-05-19T17:51:50.570Z,102053.56
2023-05-19T17:54:18.195Z,102061.97
2023-05-19T17:56:45.912Z,102052.06
2023-05-19T17:59:13.215Z,102051.44
2023-05-19T18:01:41.023Z,102049.28
2023-05-19T18:04:09.008Z,102050.94
2023-05-19T18:06:40.890Z,102050.94
2023-05-19T18:09:09.099Z,102047.38
2023-05-19T18:11:36.792Z,102040.78
2023-05-19T18:14:03.880Z,102042.25
2023-05-19T18:16:31.269Z,102047.34
2023-05-19T18:18:58.664Z,102033.00
2023-05-19T18:21:29.668Z,102045.56
2023-05-19T18:23:59.617Z,102052.41
2023-05-19T18:26:26.825Z,102044.44
2023-05-19T18:28:53.927Z,102055.13
2023-05-19T18:31:21.086Z,102047.84
2023-05-19T18:33:49.122Z,102054.53
2023-05-19T18:36:16.673Z,102048.09
2023-05-19T18:38:43.918Z,102048.63
2023-05-19T18:41:11.109Z,102056.28
2023-05-19T18:43:39.079Z,102054.25
2023-05-19T18:46:06.816Z,102054.81
2023-05-19T18:48:33.905Z,102059.78
2023-05-19T18:51:03.654Z,102061.13
2023-05-19T18:53:34.837Z,102061.56
2023-05-19T18:56:05.758Z,102062.84
2023-05-19T18:58:33.111Z,102059.72
2023-05-19T19:01:00.269Z,102057.31
2023-05-19T19:03:28.596Z,102068.25
2023-05-19T19:05:59.340Z,102065.81
2023-05-19T19:08:26.643Z,102066.19
2023-05-19T19:10:59.233Z,102069.97
2023-05-19T19:13:26.867Z,102068.44
2023-05-19T19:15:54.157Z,102077.56
2023-05-19T19:18:21.266Z,102075.13
2023-05-19T19:20:48.456Z,102078.13
2023-05-19T19:23:15.499Z,102074.69
2023-05-19T19:25:45.714Z,102076.69
2023-05-19T19:28:13.038Z,102083.09
2023-05-19T19:30:40.556Z,102083.38
2023-05-19T19:33:07.732Z,102090.66
2023-05-19T19:35:35.059Z,102088.22
2023-05-19T19:38:02.400Z,102096.38
2023-05-19T19:40:29.711Z,102102.72
2023-05-19T19:42:56.849Z,102102.91
2023-05-19T19:45:24.074Z,102096.78
2023-05-19T19:47:51.756Z,102098.69
2023-05-19T19:50:19.008Z,102104.13
2023-05-19T19:52:46.251Z,102109.59
2023-05-19T19:55:13.682Z,102106.16
2023-05-19T19:57:40.782Z,102101.81
2023-05-19T20:00:09.330Z,102116.13
2023-05-19T20:02:55.361Z,102112.69
2023-05-19T20:05:26.922Z,102111.06
2023-05-19T20:07:54.011Z,102112.94
2023-05-19T20:10:21.036Z,102126.34
2023-05-19T20:12:48.211Z,102118.47
2023-05-19T20:15:15.614Z,102119.44
2023-05-19T20:17:42.832Z,102121.28
2023-05-19T20:20:14.108Z,102119.59
2023-05-19T20:22:41.238Z,102125.00
2023-05-19T20:25:11.548Z,102126.91
2023-05-19T20:27:38.600Z,102130.56
2023-05-19T20:30:06.625Z,102127.09
2023-05-19T20:32:33.810Z,102128.06
2023-05-19T20:35:00.902Z,102129.88
2023-05-19T20:37:27.929Z,102131.78
2023-05-19T20:39:54.982Z,102118.53
2023-05-19T20:42:22.166Z,102123.94
2023-05-19T20:44:49.209Z,102119.56
2023-05-19T20:47:16.291Z,102120.53
2023-05-19T20:49:43.407Z,102122.38
2023-05-19T20:52:10.849Z,102121.50
2023-05-19T20:54:38.255Z,102124.19
2023-05-19T20:57:09.138Z,102125.13
2023-05-19T20:59:36.559Z,102123.41
2023-05-19T21:02:04.452Z,102127.03
2023-05-19T21:04:33.046Z,102124.41
2023-05-19T21:07:01.181Z,102127.09
2023-05-19T21:09:28.285Z,102120.09
2023-05-19T21:11:55.487Z,102124.56
2023-05-19T21:14:23.090Z,102121.94
2023-05-19T21:16:54.354Z,102122.88
2023-05-19T21:19:22.093Z,102125.56
2023-05-19T21:21:49.592Z,102127.38
2023-05-19T21:24:16.803Z,102132.72
2023-05-19T21:26:44.084Z,102130.13
2023-05-19T21:29:11.206Z,102128.34
2023-05-19T21:31:38.508Z,102134.59
2023-05-19T21:34:07.575Z,102131.97
2023-05-19T21:36:35.348Z,102134.69
2023-05-19T21:39:02.622Z,102140.00
2023-05-19T21:41:31.230Z,102125.81
2023-05-19T21:43:58.382Z,102129.41
2023-05-19T21:46:26.653Z,102126.75
2023-05-19T21:48:53.734Z,102132.09
2023-05-19T21:51:21.257Z,102131.25
2023-05-19T21:53:48.236Z,102129.47
2023-05-19T21:56:16.415Z,102133.94
2023-05-19T21:58:43.463Z,102131.28
2023-05-19T22:01:10.577Z,102137.53
2023-05-19T22:03:37.771Z,102137.56
2023-05-19T22:06:06.556Z,102129.59
2023-05-19T22:08:33.693Z,102124.31
2023-05-19T22:11:00.779Z,102137.59
2023-05-19T22:13:27.786Z,102129.66
2023-05-19T22:15:55.109Z,102132.31
2023-05-19T22:18:22.464Z,102129.69
2023-05-19T22:20:49.561Z,102130.59
2023-05-19T22:23:16.691Z,102127.94
2023-05-19T22:25:43.899Z,102128.84
2023-05-19T22:28:11.018Z,102132.38
2023-05-19T22:30:40.949Z,102129.72
2023-05-19T22:33:09.465Z,102134.16
2023-05-19T22:35:36.892Z,102128.88
2023-05-19T22:38:03.915Z,102120.91
2023-05-19T22:40:31.149Z,102126.22
2023-05-19T22:42:58.220Z,102122.66
2023-05-19T22:45:25.589Z,102123.56
2023-05-19T22:47:52.764Z,102124.47
2023-05-19T22:50:20.126Z,102115.59
2023-05-19T22:52:47.361Z,102112.97
2023-05-19T22:55:14.493Z,102112.97
2023-05-19T22:57:41.515Z,102123.59
2023-05-19T23:00:09.732Z,102117.38
2023-05-19T23:02:37.006Z,102122.72
2023-05-19T23:05:04.426Z,102119.19
2023-05-19T23:07:31.487Z,102120.06
2023-05-19T23:09:58.581Z,102127.16
2023-05-19T23:12:25.937Z,102116.53
2023-05-19T23:14:53.433Z,102120.97
2023-05-19T23:17:20.440Z,102120.94
2023-05-19T23:19:47.499Z,102119.19
2023-05-19T23:22:14.597Z,102117.44
2023-05-19T23:24:41.606Z,102114.78
2023-05-19T23:27:08.688Z,102117.44
2023-05-19T23:29:35.932Z,102122.72
2023-05-19T23:32:03.206Z,102123.63
2023-05-19T23:34:30.224Z,102121.81
2023-05-19T23:36:57.259Z,102128.91
2023-05-19T23:39:25.477Z,102121.84
2023-05-19T23:41:52.688Z,102119.16
2023-05-19T23:44:19.739Z,102120.94
2023-05-19T23:46:46.822Z,102123.59
2023-05-19T23:49:14.629Z,102123.59
2023-05-19T23:51:41.693Z,102119.19
2023-05-19T23:54:08.701Z,102119.16
2023-05-19T23:56:35.779Z,102118.28
2023-05-19T23:59:02.856Z,102120.03
